CheckWX is a tool to help pilots better visualize weather data.  It is not intended as a substitute for an official pre-flight weather briefing.

09:11:11 UTC

KLIT METAR
Bill and Hillary Clinton National / Adams Field Airport
Little Rock, Arkansas, USA
Current

18 mins ago

KLIT 190853Z 21004KT 2SM +RA BR BKN006 OVC013 18/17 A2978 RMK AO2 RAE12B36 SLP084 P0017 60020 T01780172 50003 $
Observed
May-19 @ 08:53 UTC
Wind
  • 210° at 4 KTS
Visibility
2 SM
Flight Rules
IFR
Conditions
Heavy Rain, Mist
Cloud Levels
  • Broken at 600' AGL
  • Overcast at 1,300' AGL
Temperature
18°C / 64°F
Dewpoint
17°C / 63°F
Humidity
94%
Altimeter
29.78" Hg
Pressure
1008.42 hPa
Current Rain
0.17"
Previous

25 mins ago

KLIT 190846Z 24005KT 2SM +RA BR OVC006 18/17 A2978 RMK AO2 RAE12B36 P0003 T01780172 $
Observed
May-19 @ 08:46 UTC
Wind
  • 240° at 5 KTS
Visibility
2 SM
Flight Rules
IFR
Conditions
Heavy Rain, Mist
Cloud Levels
  • Overcast at 600' AGL
Temperature
18°C / 64°F
Dewpoint
17°C / 63°F
Humidity
94%
Altimeter
29.78" Hg
Pressure
1008.42 hPa
Current Rain
0.03"
Previous

1 hour ago

KLIT 190753Z 27015G19KT 10SM -RA OVC007 18/17 A2980 RMK AO2 PRESRR SLP090 P0002 T01830172 $
Observed
May-19 @ 07:53 UTC
Wind
  • 270° at 15 KTS
  • Gusting to 19 KTS
Visibility
10 SM
Flight Rules
IFR
Conditions
Light Rain
Cloud Levels
  • Overcast at 700' AGL
Temperature
18°C / 64°F
Dewpoint
17°C / 63°F
Humidity
94%
Altimeter
29.8" Hg
Pressure
1009.12 hPa
Current Rain
0.02"